AVL weather

Asheville Regional Airport
Asheville, North Carolina, United States

Public forecast

Using degrees Fahrenheit for public forecast. Weather courtesy of forecast.io.

Current aviation weather report (METAR) for Asheville Regional Airport

Retrieved 2019/10/16 04:54 UTC (49 minutes ago):

KAVL 160454Z AUTO 17003KT 10SM OVC033 16/12 A2999 RMK AO2 SLP135 T01560117 402170061

Aviation forecast (TAF) for Asheville Regional Airport

Retrieved 2019-10-16 00:42 UTC (5 hours ago):

TAF KAVL 152340Z 1600/1624 13004KT P6SM VCSH SCT040 BKN050 FM160900 16003KT 6SM -SHRA FEW010 OVC020 FM161000 17003KT 3SM -SHRA BR OVC007 FM161600 33011G18KT P6SM VCSH SCT015 BKN030 FM162100 33016G25KT P6SM SKC